sensor_id;sensor_type;location;lat;lon;timestamp;temperature;humidity
72772;SHT30;60894;42.544;1.516;2022-09-01T00:01:20;11.94;81.10
72772;SHT30;60894;42.544;1.516;2022-09-01T00:03:50;11.77;81.71
72772;SHT30;60894;42.544;1.516;2022-09-01T00:06:17;11.85;81.32
72772;SHT30;60894;42.544;1.516;2022-09-01T00:08:47;11.81;81.79
72772;SHT30;60894;42.544;1.516;2022-09-01T00:11:14;11.67;82.00
72772;SHT30;60894;42.544;1.516;2022-09-01T00:13:41;11.81;82.43
72772;SHT30;60894;42.544;1.516;2022-09-01T00:16:08;11.73;81.84
72772;SHT30;60894;42.544;1.516;2022-09-01T00:18:40;11.74;81.65
72772;SHT30;60894;42.544;1.516;2022-09-01T00:21:07;11.74;81.59
72772;SHT30;60894;42.544;1.516;2022-09-01T00:23:35;11.70;81.92
72772;SHT30;60894;42.544;1.516;2022-09-01T00:26:02;11.55;82.55
72772;SHT30;60894;42.544;1.516;2022-09-01T00:28:32;11.54;82.51
72772;SHT30;60894;42.544;1.516;2022-09-01T00:30:59;11.55;82.33
72772;SHT30;60894;42.544;1.516;2022-09-01T00:33:27;11.57;82.26
72772;SHT30;60894;42.544;1.516;2022-09-01T00:35:55;11.55;82.53
72772;SHT30;60894;42.544;1.516;2022-09-01T00:38:22;11.63;83.03
72772;SHT30;60894;42.544;1.516;2022-09-01T00:40:49;11.68;82.13
72772;SHT30;60894;42.544;1.516;2022-09-01T00:43:22;11.81;82.70
72772;SHT30;60894;42.544;1.516;2022-09-01T00:45:49;11.99;81.85
72772;SHT30;60894;42.544;1.516;2022-09-01T00:48:17;11.82;81.44
72772;SHT30;60894;42.544;1.516;2022-09-01T00:50:46;11.94;81.52
72772;SHT30;60894;42.544;1.516;2022-09-01T00:53:15;11.77;81.12
72772;SHT30;60894;42.544;1.516;2022-09-01T00:55:42;11.78;81.47
72772;SHT30;60894;42.544;1.516;2022-09-01T00:58:09;11.70;81.50
72772;SHT30;60894;42.544;1.516;2022-09-01T01:00:37;11.63;81.62
72772;SHT30;60894;42.544;1.516;2022-09-01T01:03:06;11.81;82.82
72772;SHT30;60894;42.544;1.516;2022-09-01T01:05:37;11.86;81.61
72772;SHT30;60894;42.544;1.516;2022-09-01T01:08:06;11.94;81.17
72772;SHT30;60894;42.544;1.516;2022-09-01T01:10:37;11.84;80.79
72772;SHT30;60894;42.544;1.516;2022-09-01T01:13:07;11.98;80.98
72772;SHT30;60894;42.544;1.516;2022-09-01T01:15:34;11.82;80.81
72772;SHT30;60894;42.544;1.516;2022-09-01T01:18:02;11.91;81.21
72772;SHT30;60894;42.544;1.516;2022-09-01T01:20:30;11.94;80.63
72772;SHT30;60894;42.544;1.516;2022-09-01T01:23:20;11.92;79.96
72772;SHT30;60894;42.544;1.516;2022-09-01T01:25:52;11.78;80.50
72772;SHT30;60894;42.544;1.516;2022-09-01T01:28:23;11.55;81.09
72772;SHT30;60894;42.544;1.516;2022-09-01T01:30:58;11.55;81.30
72772;SHT30;60894;42.544;1.516;2022-09-01T01:33:28;11.51;81.20
72772;SHT30;60894;42.544;1.516;2022-09-01T01:35:56;11.45;81.82
72772;SHT30;60894;42.544;1.516;2022-09-01T01:38:23;11.61;82.80
72772;SHT30;60894;42.544;1.516;2022-09-01T01:40:53;11.65;81.92
72772;SHT30;60894;42.544;1.516;2022-09-01T01:43:21;11.85;81.59
72772;SHT30;60894;42.544;1.516;2022-09-01T01:45:50;11.77;80.28
72772;SHT30;60894;42.544;1.516;2022-09-01T01:48:17;11.73;80.89
72772;SHT30;60894;42.544;1.516;2022-09-01T01:50:47;11.74;81.27
72772;SHT30;60894;42.544;1.516;2022-09-01T01:53:14;11.73;81.62
72772;SHT30;60894;42.544;1.516;2022-09-01T01:55:44;11.89;81.13
72772;SHT30;60894;42.544;1.516;2022-09-01T01:58:14;11.67;80.44
72772;SHT30;60894;42.544;1.516;2022-09-01T02:00:42;11.70;80.90
72772;SHT30;60894;42.544;1.516;2022-09-01T02:03:12;11.58;80.32
72772;SHT30;60894;42.544;1.516;2022-09-01T02:05:44;11.60;80.74
72772;SHT30;60894;42.544;1.516;2022-09-01T02:08:11;11.67;80.79
72772;SHT30;60894;42.544;1.516;2022-09-01T02:10:41;11.81;81.14
72772;SHT30;60894;42.544;1.516;2022-09-01T02:13:10;12.01;80.54
72772;SHT30;60894;42.544;1.516;2022-09-01T02:15:44;11.85;79.13
72772;SHT30;60894;42.544;1.516;2022-09-01T02:18:12;11.88;80.02
72772;SHT30;60894;42.544;1.516;2022-09-01T02:20:41;11.84;80.06
72772;SHT30;60894;42.544;1.516;2022-09-01T02:23:09;11.67;79.89
72772;SHT30;60894;42.544;1.516;2022-09-01T02:25:38;11.64;80.03
72772;SHT30;60894;42.544;1.516;2022-09-01T02:28:07;11.37;80.85
72772;SHT30;60894;42.544;1.516;2022-09-01T02:30:42;11.27;81.32
72772;SHT30;60894;42.544;1.516;2022-09-01T02:33:10;11.22;81.78
72772;SHT30;60894;42.544;1.516;2022-09-01T02:35:43;11.12;82.60
72772;SHT30;60894;42.544;1.516;2022-09-01T02:38:10;11.03;82.63
72772;SHT30;60894;42.544;1.516;2022-09-01T02:40:39;11.19;83.19
72772;SHT30;60894;42.544;1.516;2022-09-01T02:43:09;11.19;81.97
72772;SHT30;60894;42.544;1.516;2022-09-01T02:45:38;11.27;81.42
72772;SHT30;60894;42.544;1.516;2022-09-01T02:48:08;11.19;81.85
72772;SHT30;60894;42.544;1.516;2022-09-01T02:50:35;11.22;81.48
72772;SHT30;60894;42.544;1.516;2022-09-01T02:53:03;11.28;81.23
72772;SHT30;60894;42.544;1.516;2022-09-01T02:55:34;11.30;81.52
72772;SHT30;60894;42.544;1.516;2022-09-01T02:58:01;11.31;81.26
72772;SHT30;60894;42.544;1.516;2022-09-01T03:00:28;11.54;81.70
72772;SHT30;60894;42.544;1.516;2022-09-01T03:02:57;11.43;80.53
72772;SHT30;60894;42.544;1.516;2022-09-01T03:05:28;11.35;80.88
72772;SHT30;60894;42.544;1.516;2022-09-01T03:07:59;11.30;81.32
72772;SHT30;60894;42.544;1.516;2022-09-01T03:10:28;11.41;80.73
72772;SHT30;60894;42.544;1.516;2022-09-01T03:12:58;11.40;80.63
72772;SHT30;60894;42.544;1.516;2022-09-01T03:15:26;11.35;80.51
72772;SHT30;60894;42.544;1.516;2022-09-01T03:17:54;11.33;80.71
72772;SHT30;60894;42.544;1.516;2022-09-01T03:20:26;11.23;81.25
72772;SHT30;60894;42.544;1.516;2022-09-01T03:22:52;11.33;82.12
72772;SHT30;60894;42.544;1.516;2022-09-01T03:25:21;11.63;81.96
72772;SHT30;60894;42.544;1.516;2022-09-01T03:27:49;11.77;80.92
72772;SHT30;60894;42.544;1.516;2022-09-01T03:30:17;11.81;79.96
72772;SHT30;60894;42.544;1.516;2022-09-01T03:32:44;11.74;79.05
72772;SHT30;60894;42.544;1.516;2022-09-01T03:35:12;11.67;79.13
72772;SHT30;60894;42.544;1.516;2022-09-01T03:37:41;11.63;79.16
72772;SHT30;60894;42.544;1.516;2022-09-01T03:40:12;11.26;80.19
72772;SHT30;60894;42.544;1.516;2022-09-01T03:42:40;11.26;80.62
72772;SHT30;60894;42.544;1.516;2022-09-01T03:45:09;11.26;81.08
72772;SHT30;60894;42.544;1.516;2022-09-01T03:47:37;11.22;80.42
72772;SHT30;60894;42.544;1.516;2022-09-01T03:50:06;11.13;80.89
72772;SHT30;60894;42.544;1.516;2022-09-01T03:52:35;11.20;80.88
72772;SHT30;60894;42.544;1.516;2022-09-01T03:55:05;11.19;81.21
72772;SHT30;60894;42.544;1.516;2022-09-01T03:57:34;11.40;81.77
72772;SHT30;60894;42.544;1.516;2022-09-01T04:00:08;11.33;79.79
72772;SHT30;60894;42.544;1.516;2022-09-01T04:02:45;11.45;80.39
72772;SHT30;60894;42.544;1.516;2022-09-01T04:05:16;11.61;81.07
72772;SHT30;60894;42.544;1.516;2022-09-01T04:07:44;11.82;80.49
72772;SHT30;60894;42.544;1.516;2022-09-01T04:10:14;11.95;79.39
72772;SHT30;60894;42.544;1.516;2022-09-01T04:12:42;11.98;78.10
72772;SHT30;60894;42.544;1.516;2022-09-01T04:15:10;11.92;78.86
72772;SHT30;60894;42.544;1.516;2022-09-01T04:17:38;11.96;77.73
72772;SHT30;60894;42.544;1.516;2022-09-01T04:20:22;11.92;78.33
72772;SHT30;60894;42.544;1.516;2022-09-01T04:22:50;12.12;78.98
72772;SHT30;60894;42.544;1.516;2022-09-01T04:25:19;12.18;77.67
72772;SHT30;60894;42.544;1.516;2022-09-01T04:27:50;12.09;76.10
72772;SHT30;60894;42.544;1.516;2022-09-01T04:30:20;11.95;77.36
72772;SHT30;60894;42.544;1.516;2022-09-01T04:32:53;11.67;77.41
72772;SHT30;60894;42.544;1.516;2022-09-01T04:35:21;11.61;77.98
72772;SHT30;60894;42.544;1.516;2022-09-01T04:37:57;11.31;79.15
72772;SHT30;60894;42.544;1.516;2022-09-01T04:40:25;11.24;79.50
72772;SHT30;60894;42.544;1.516;2022-09-01T04:42:52;11.10;80.15
72772;SHT30;60894;42.544;1.516;2022-09-01T04:45:19;11.27;81.44
72772;SHT30;60894;42.544;1.516;2022-09-01T04:47:49;11.47;80.76
72772;SHT30;60894;42.544;1.516;2022-09-01T04:50:17;11.70;80.02
72772;SHT30;60894;42.544;1.516;2022-09-01T04:52:44;11.71;78.57
72772;SHT30;60894;42.544;1.516;2022-09-01T04:55:13;11.53;78.35
72772;SHT30;60894;42.544;1.516;2022-09-01T04:57:45;11.55;78.53
72772;SHT30;60894;42.544;1.516;2022-09-01T05:00:15;11.61;78.20
72772;SHT30;60894;42.544;1.516;2022-09-01T05:02:49;11.35;79.21
72772;SHT30;60894;42.544;1.516;2022-09-01T05:05:17;11.40;79.16
72772;SHT30;60894;42.544;1.516;2022-09-01T05:07:44;11.44;79.16
72772;SHT30;60894;42.544;1.516;2022-09-01T05:10:11;11.37;79.51
72772;SHT30;60894;42.544;1.516;2022-09-01T05:12:39;11.44;79.41
72772;SHT30;60894;42.544;1.516;2022-09-01T05:15:11;11.68;79.64
72772;SHT30;60894;42.544;1.516;2022-09-01T05:17:38;11.74;79.23
72772;SHT30;60894;42.544;1.516;2022-09-01T05:20:07;11.54;77.67
72772;SHT30;60894;42.544;1.516;2022-09-01T05:22:34;11.43;79.15
72772;SHT30;60894;42.544;1.516;2022-09-01T05:25:07;11.23;78.90
72772;SHT30;60894;42.544;1.516;2022-09-01T05:27:39;11.41;80.44
72772;SHT30;60894;42.544;1.516;2022-09-01T05:30:07;11.27;79.27
72772;SHT30;60894;42.544;1.516;2022-09-01T05:32:36;11.28;79.11
72772;SHT30;60894;42.544;1.516;2022-09-01T05:35:05;11.43;79.56
72772;SHT30;60894;42.544;1.516;2022-09-01T05:37:34;11.58;79.87
72772;SHT30;60894;42.544;1.516;2022-09-01T05:40:04;11.78;79.13
72772;SHT30;60894;42.544;1.516;2022-09-01T05:42:34;11.75;78.36
72772;SHT30;60894;42.544;1.516;2022-09-01T05:45:04;11.81;77.94
72772;SHT30;60894;42.544;1.516;2022-09-01T05:47:32;11.92;78.31
72772;SHT30;60894;42.544;1.516;2022-09-01T05:50:02;11.98;77.01
72772;SHT30;60894;42.544;1.516;2022-09-01T05:52:32;11.79;77.10
72772;SHT30;60894;42.544;1.516;2022-09-01T05:54:59;11.51;78.18
72772;SHT30;60894;42.544;1.516;2022-09-01T05:57:26;11.48;78.28
72772;SHT30;60894;42.544;1.516;2022-09-01T05:59:53;11.14;79.83
72772;SHT30;60894;42.544;1.516;2022-09-01T06:02:21;11.12;80.08
72772;SHT30;60894;42.544;1.516;2022-09-01T06:04:48;11.02;80.07
72772;SHT30;60894;42.544;1.516;2022-09-01T06:07:18;11.06;80.02
72772;SHT30;60894;42.544;1.516;2022-09-01T06:09:47;11.07;81.11
72772;SHT30;60894;42.544;1.516;2022-09-01T06:12:15;11.23;80.32
72772;SHT30;60894;42.544;1.516;2022-09-01T06:14:49;11.16;80.21
72772;SHT30;60894;42.544;1.516;2022-09-01T06:17:18;11.02;80.88
72772;SHT30;60894;42.544;1.516;2022-09-01T06:19:49;11.06;81.28
72772;SHT30;60894;42.544;1.516;2022-09-01T06:22:18;11.12;81.30
72772;SHT30;60894;42.544;1.516;2022-09-01T06:24:46;11.24;81.31
72772;SHT30;60894;42.544;1.516;2022-09-01T06:27:13;11.26;80.85
72772;SHT30;60894;42.544;1.516;2022-09-01T06:29:44;11.41;79.79
72772;SHT30;60894;42.544;1.516;2022-09-01T06:32:19;11.20;80.89
72772;SHT30;60894;42.544;1.516;2022-09-01T06:34:46;11.02;81.66
72772;SHT30;60894;42.544;1.516;2022-09-01T06:37:16;11.03;82.06
72772;SHT30;60894;42.544;1.516;2022-09-01T06:39:48;11.02;81.74
72772;SHT30;60894;42.544;1.516;2022-09-01T06:42:16;11.04;81.72
72772;SHT30;60894;42.544;1.516;2022-09-01T06:44:43;11.07;81.81
72772;SHT30;60894;42.544;1.516;2022-09-01T06:47:11;11.14;81.47
72772;SHT30;60894;42.544;1.516;2022-09-01T06:49:39;11.23;81.78
72772;SHT30;60894;42.544;1.516;2022-09-01T06:52:07;11.28;81.49
72772;SHT30;60894;42.544;1.516;2022-09-01T06:54:36;11.28;81.33
72772;SHT30;60894;42.544;1.516;2022-09-01T06:57:05;11.43;81.47
72772;SHT30;60894;42.544;1.516;2022-09-01T06:59:32;11.43;80.94
72772;SHT30;60894;42.544;1.516;2022-09-01T07:02:01;11.64;80.53
72772;SHT30;60894;42.544;1.516;2022-09-01T07:04:28;11.79;80.06
72772;SHT30;60894;42.544;1.516;2022-09-01T07:06:56;11.86;80.10
72772;SHT30;60894;42.544;1.516;2022-09-01T07:09:23;12.06;78.90
72772;SHT30;60894;42.544;1.516;2022-09-01T07:11:51;11.99;80.03
72772;SHT30;60894;42.544;1.516;2022-09-01T07:14:21;12.18;79.55
72772;SHT30;60894;42.544;1.516;2022-09-01T07:16:48;12.16;80.40
72772;SHT30;60894;42.544;1.516;2022-09-01T07:19:15;12.22;80.67
72772;SHT30;60894;42.544;1.516;2022-09-01T07:21:43;12.28;81.41
72772;SHT30;60894;42.544;1.516;2022-09-01T07:24:11;12.52;81.64
72772;SHT30;60894;42.544;1.516;2022-09-01T07:26:40;12.63;78.96
72772;SHT30;60894;42.544;1.516;2022-09-01T07:29:07;12.90;80.02
72772;SHT30;60894;42.544;1.516;2022-09-01T07:31:38;13.01;78.90
72772;SHT30;60894;42.544;1.516;2022-09-01T07:34:08;13.21;78.86
72772;SHT30;60894;42.544;1.516;2022-09-01T07:36:38;13.32;77.58
72772;SHT30;60894;42.544;1.516;2022-09-01T07:39:08;13.44;79.40
72772;SHT30;60894;42.544;1.516;2022-09-01T07:41:35;13.52;77.95
72772;SHT30;60894;42.544;1.516;2022-09-01T07:44:03;13.62;77.63
72772;SHT30;60894;42.544;1.516;2022-09-01T07:46:30;13.67;77.33
72772;SHT30;60894;42.544;1.516;2022-09-01T07:49:00;13.70;77.38
72772;SHT30;60894;42.544;1.516;2022-09-01T07:51:29;13.73;76.94
72772;SHT30;60894;42.544;1.516;2022-09-01T07:53:57;13.85;76.83
72772;SHT30;60894;42.544;1.516;2022-09-01T07:56:27;13.99;77.72
72772;SHT30;60894;42.544;1.516;2022-09-01T07:58:55;13.95;77.17
72772;SHT30;60894;42.544;1.516;2022-09-01T08:01:24;14.12;76.29
72772;SHT30;60894;42.544;1.516;2022-09-01T08:03:53;14.20;75.90
72772;SHT30;60894;42.544;1.516;2022-09-01T08:06:24;14.28;76.56
72772;SHT30;60894;42.544;1.516;2022-09-01T08:08:52;14.38;75.44
72772;SHT30;60894;42.544;1.516;2022-09-01T08:11:21;14.55;75.34
72772;SHT30;60894;42.544;1.516;2022-09-01T08:13:50;14.58;75.26
72772;SHT30;60894;42.544;1.516;2022-09-01T08:16:17;14.71;74.52
72772;SHT30;60894;42.544;1.516;2022-09-01T08:18:44;14.84;74.11
72772;SHT30;60894;42.544;1.516;2022-09-01T08:21:12;14.88;73.64
72772;SHT30;60894;42.544;1.516;2022-09-01T08:23:41;14.92;73.71
72772;SHT30;60894;42.544;1.516;2022-09-01T08:26:10;15.03;73.22
72772;SHT30;60894;42.544;1.516;2022-09-01T08:28:38;15.10;72.86
72772;SHT30;60894;42.544;1.516;2022-09-01T08:31:06;15.18;72.28
72772;SHT30;60894;42.544;1.516;2022-09-01T08:33:35;15.36;72.65
72772;SHT30;60894;42.544;1.516;2022-09-01T08:36:03;15.54;71.66
72772;SHT30;60894;42.544;1.516;2022-09-01T08:38:30;15.57;72.36
72772;SHT30;60894;42.544;1.516;2022-09-01T08:40:58;15.68;70.45
72772;SHT30;60894;42.544;1.516;2022-09-01T08:43:37;15.81;69.21
72772;SHT30;60894;42.544;1.516;2022-09-01T08:46:12;15.94;68.02
72772;SHT30;60894;42.544;1.516;2022-09-01T08:48:41;16.04;67.80
72772;SHT30;60894;42.544;1.516;2022-09-01T08:51:14;16.11;64.88
72772;SHT30;60894;42.544;1.516;2022-09-01T08:53:48;16.15;64.38
72772;SHT30;60894;42.544;1.516;2022-09-01T08:56:17;16.32;73.79
72772;SHT30;60894;42.544;1.516;2022-09-01T08:58:44;16.35;68.68
72772;SHT30;60894;42.544;1.516;2022-09-01T09:01:16;16.51;67.82
72772;SHT30;60894;42.544;1.516;2022-09-01T09:03:54;16.69;67.60
72772;SHT30;60894;42.544;1.516;2022-09-01T09:06:31;16.80;66.88
72772;SHT30;60894;42.544;1.516;2022-09-01T09:09:04;16.96;67.25
72772;SHT30;60894;42.544;1.516;2022-09-01T09:12:12;17.16;66.92
72772;SHT30;60894;42.544;1.516;2022-09-01T09:14:51;17.35;64.47
72772;SHT30;60894;42.544;1.516;2022-09-01T09:17:27;17.44;63.27
72772;SHT30;60894;42.544;1.516;2022-09-01T09:19:55;17.61;64.28
72772;SHT30;60894;42.544;1.516;2022-09-01T09:22:22;17.72;64.11
72772;SHT30;60894;42.544;1.516;2022-09-01T09:24:51;17.82;64.09
72772;SHT30;60894;42.544;1.516;2022-09-01T09:27:23;17.92;61.44
72772;SHT30;60894;42.544;1.516;2022-09-01T09:29:52;18.09;62.31
72772;SHT30;60894;42.544;1.516;2022-09-01T09:32:20;18.20;60.70
72772;SHT30;60894;42.544;1.516;2022-09-01T09:34:48;18.30;61.75
72772;SHT30;60894;42.544;1.516;2022-09-01T09:37:26;18.53;60.57
72772;SHT30;60894;42.544;1.516;2022-09-01T09:40:15;18.68;59.37
72772;SHT30;60894;42.544;1.516;2022-09-01T09:43:02;18.87;61.63
72772;SHT30;60894;42.544;1.516;2022-09-01T09:45:31;19.04;62.31
72772;SHT30;60894;42.544;1.516;2022-09-01T09:48:00;19.19;60.44
72772;SHT30;60894;42.544;1.516;2022-09-01T09:50:32;19.32;58.18
72772;SHT30;60894;42.544;1.516;2022-09-01T09:53:17;19.56;57.84
72772;SHT30;60894;42.544;1.516;2022-09-01T09:55:58;19.82;60.59
72772;SHT30;60894;42.544;1.516;2022-09-01T09:58:33;19.90;58.84
72772;SHT30;60894;42.544;1.516;2022-09-01T10:01:04;19.94;59.48
72772;SHT30;60894;42.544;1.516;2022-09-01T10:03:38;20.10;57.91
72772;SHT30;60894;42.544;1.516;2022-09-01T10:06:09;20.09;57.08
72772;SHT30;60894;42.544;1.516;2022-09-01T10:08:40;20.24;57.66
72772;SHT30;60894;42.544;1.516;2022-09-01T10:11:23;20.27;56.49
72772;SHT30;60894;42.544;1.516;2022-09-01T10:13:53;20.37;56.77
72772;SHT30;60894;42.544;1.516;2022-09-01T10:16:25;20.53;56.08
72772;SHT30;60894;42.544;1.516;2022-09-01T10:18:54;20.75;54.01
72772;SHT30;60894;42.544;1.516;2022-09-01T10:21:30;20.75;53.35
72772;SHT30;60894;42.544;1.516;2022-09-01T10:23:58;20.92;52.50
72772;SHT30;60894;42.544;1.516;2022-09-01T10:26:30;21.24;53.23
72772;SHT30;60894;42.544;1.516;2022-09-01T10:29:05;21.37;52.60
72772;SHT30;60894;42.544;1.516;2022-09-01T10:31:33;21.39;52.33
72772;SHT30;60894;42.544;1.516;2022-09-01T10:34:02;21.44;51.13
72772;SHT30;60894;42.544;1.516;2022-09-01T10:36:31;21.68;51.58
72772;SHT30;60894;42.544;1.516;2022-09-01T10:38:58;21.81;52.00
72772;SHT30;60894;42.544;1.516;2022-09-01T10:41:47;22.12;50.76
72772;SHT30;60894;42.544;1.516;2022-09-01T10:44:21;22.32;49.46
72772;SHT30;60894;42.544;1.516;2022-09-01T10:46:49;22.51;49.56
72772;SHT30;60894;42.544;1.516;2022-09-01T10:55:45;22.93;47.87
72772;SHT30;60894;42.544;1.516;2022-09-01T11:04:21;23.20;47.83
72772;SHT30;60894;42.544;1.516;2022-09-01T11:06:57;23.31;44.85
72772;SHT30;60894;42.544;1.516;2022-09-01T11:09:32;23.42;45.82
72772;SHT30;60894;42.544;1.516;2022-09-01T11:12:29;23.59;45.03
72772;SHT30;60894;42.544;1.516;2022-09-01T11:15:03;23.86;44.41
72772;SHT30;60894;42.544;1.516;2022-09-01T11:17:31;23.95;44.26
72772;SHT30;60894;42.544;1.516;2022-09-01T11:20:06;24.20;43.38
72772;SHT30;60894;42.544;1.516;2022-09-01T11:22:40;24.29;42.93
72772;SHT30;60894;42.544;1.516;2022-09-01T11:25:37;24.43;42.85
72772;SHT30;60894;42.544;1.516;2022-09-01T11:31:24;24.10;43.71
72772;SHT30;60894;42.544;1.516;2022-09-01T11:34:00;23.45;43.86
72772;SHT30;60894;42.544;1.516;2022-09-01T11:36:31;23.58;45.59
72772;SHT30;60894;42.544;1.516;2022-09-01T11:39:06;24.05;43.00
72772;SHT30;60894;42.544;1.516;2022-09-01T11:41:46;24.24;42.83
72772;SHT30;60894;42.544;1.516;2022-09-01T11:44:22;24.60;42.19
72772;SHT30;60894;42.544;1.516;2022-09-01T11:46:50;24.59;41.85
72772;SHT30;60894;42.544;1.516;2022-09-01T11:49:27;24.16;42.94
72772;SHT30;60894;42.544;1.516;2022-09-01T11:51:57;24.13;41.94
72772;SHT30;60894;42.544;1.516;2022-09-01T11:54:25;24.63;40.96
72772;SHT30;60894;42.544;1.516;2022-09-01T11:56:52;24.91;40.35
72772;SHT30;60894;42.544;1.516;2022-09-01T11:59:33;25.05;40.67
72772;SHT30;60894;42.544;1.516;2022-09-01T12:02:00;24.84;40.55
72772;SHT30;60894;42.544;1.516;2022-09-01T12:04:32;24.85;40.13
72772;SHT30;60894;42.544;1.516;2022-09-01T12:07:04;25.43;40.51
72772;SHT30;60894;42.544;1.516;2022-09-01T12:09:34;25.98;39.36
72772;SHT30;60894;42.544;1.516;2022-09-01T12:12:02;26.00;36.98
72772;SHT30;60894;42.544;1.516;2022-09-01T12:14:30;26.48;39.06
72772;SHT30;60894;42.544;1.516;2022-09-01T12:16:59;26.99;37.09
72772;SHT30;60894;42.544;1.516;2022-09-01T12:19:29;27.07;35.35
72772;SHT30;60894;42.544;1.516;2022-09-01T12:21:59;27.26;36.48
72772;SHT30;60894;42.544;1.516;2022-09-01T12:24:30;26.95;34.97
72772;SHT30;60894;42.544;1.516;2022-09-01T12:26:58;26.76;35.71
72772;SHT30;60894;42.544;1.516;2022-09-01T12:29:26;26.67;36.67
72772;SHT30;60894;42.544;1.516;2022-09-01T12:31:54;26.85;35.94
72772;SHT30;60894;42.544;1.516;2022-09-01T12:34:39;26.25;37.11
72772;SHT30;60894;42.544;1.516;2022-09-01T12:37:09;26.24;37.91
72772;SHT30;60894;42.544;1.516;2022-09-01T12:39:39;26.10;38.59
72772;SHT30;60894;42.544;1.516;2022-09-01T12:42:10;26.14;38.08
72772;SHT30;60894;42.544;1.516;2022-09-01T12:44:46;26.47;37.23
72772;SHT30;60894;42.544;1.516;2022-09-01T12:47:43;26.79;37.69
72772;SHT30;60894;42.544;1.516;2022-09-01T12:50:42;26.61;37.20
72772;SHT30;60894;42.544;1.516;2022-09-01T12:53:16;25.83;39.06
72772;SHT30;60894;42.544;1.516;2022-09-01T12:56:02;25.38;40.02
72772;SHT30;60894;42.544;1.516;2022-09-01T12:58:30;25.53;39.44
72772;SHT30;60894;42.544;1.516;2022-09-01T13:01:00;25.94;38.83
72772;SHT30;60894;42.544;1.516;2022-09-01T13:03:29;26.34;37.36
72772;SHT30;60894;42.544;1.516;2022-09-01T13:05:59;26.56;37.98
72772;SHT30;60894;42.544;1.516;2022-09-01T13:08:28;26.93;37.21
72772;SHT30;60894;42.544;1.516;2022-09-01T13:11:01;26.69;37.12
72772;SHT30;60894;42.544;1.516;2022-09-01T13:13:29;26.59;37.10
72772;SHT30;60894;42.544;1.516;2022-09-01T13:15:58;26.31;37.33
72772;SHT30;60894;42.544;1.516;2022-09-01T13:18:27;25.63;37.99
72772;SHT30;60894;42.544;1.516;2022-09-01T13:20:58;25.62;39.27
72772;SHT30;60894;42.544;1.516;2022-09-01T13:23:25;25.25;40.12
72772;SHT30;60894;42.544;1.516;2022-09-01T13:25:52;24.85;40.54
72772;SHT30;60894;42.544;1.516;2022-09-01T13:28:19;24.54;41.40
72772;SHT30;60894;42.544;1.516;2022-09-01T13:30:53;24.30;41.94
72772;SHT30;60894;42.544;1.516;2022-09-01T13:33:20;23.96;42.73
72772;SHT30;60894;42.544;1.516;2022-09-01T13:35:48;23.81;43.01
72772;SHT30;60894;42.544;1.516;2022-09-01T13:38:17;23.81;42.69
72772;SHT30;60894;42.544;1.516;2022-09-01T13:40:45;23.82;42.72
72772;SHT30;60894;42.544;1.516;2022-09-01T13:43:13;23.68;43.65
72772;SHT30;60894;42.544;1.516;2022-09-01T13:45:40;23.65;43.81
72772;SHT30;60894;42.544;1.516;2022-09-01T13:48:08;23.69;44.00
72772;SHT30;60894;42.544;1.516;2022-09-01T13:50:36;24.01;43.23
72772;SHT30;60894;42.544;1.516;2022-09-01T13:53:05;24.65;42.38
72772;SHT30;60894;42.544;1.516;2022-09-01T13:55:36;25.11;41.80
72772;SHT30;60894;42.544;1.516;2022-09-01T13:58:04;25.61;40.41
72772;SHT30;60894;42.544;1.516;2022-09-01T14:00:33;25.62;40.58
72772;SHT30;60894;42.544;1.516;2022-09-01T14:03:04;25.36;41.23
72772;SHT30;60894;42.544;1.516;2022-09-01T14:05:33;24.75;42.08
72772;SHT30;60894;42.544;1.516;2022-09-01T14:08:02;24.59;41.95
72772;SHT30;60894;42.544;1.516;2022-09-01T14:10:30;24.47;42.73
72772;SHT30;60894;42.544;1.516;2022-09-01T14:12:59;24.77;42.20
72772;SHT30;60894;42.544;1.516;2022-09-01T14:15:26;25.08;41.58
72772;SHT30;60894;42.544;1.516;2022-09-01T14:17:55;25.12;41.87
72772;SHT30;60894;42.544;1.516;2022-09-01T14:20:25;25.47;40.89
72772;SHT30;60894;42.544;1.516;2022-09-01T14:22:52;25.63;40.93
72772;SHT30;60894;42.544;1.516;2022-09-01T14:25:20;25.76;41.26
72772;SHT30;60894;42.544;1.516;2022-09-01T14:27:47;25.58;41.41
72772;SHT30;60894;42.544;1.516;2022-09-01T14:30:19;25.84;40.78
72772;SHT30;60894;42.544;1.516;2022-09-01T14:32:48;25.83;40.87
72772;SHT30;60894;42.544;1.516;2022-09-01T14:35:16;26.40;40.15
72772;SHT30;60894;42.544;1.516;2022-09-01T14:37:44;26.82;39.51
72772;SHT30;60894;42.544;1.516;2022-09-01T14:40:13;26.65;38.94
72772;SHT30;60894;42.544;1.516;2022-09-01T14:42:41;26.01;40.85
72772;SHT30;60894;42.544;1.516;2022-09-01T14:45:11;26.17;39.25
72772;SHT30;60894;42.544;1.516;2022-09-01T14:47:41;26.27;40.01
72772;SHT30;60894;42.544;1.516;2022-09-01T14:50:09;26.74;39.73
72772;SHT30;60894;42.544;1.516;2022-09-01T14:52:37;26.92;39.21
72772;SHT30;60894;42.544;1.516;2022-09-01T14:55:05;27.03;38.85
72772;SHT30;60894;42.544;1.516;2022-09-01T14:57:32;27.05;38.22
72772;SHT30;60894;42.544;1.516;2022-09-01T14:59:59;27.25;38.02
72772;SHT30;60894;42.544;1.516;2022-09-01T15:02:26;27.61;37.00
72772;SHT30;60894;42.544;1.516;2022-09-01T15:04:55;26.81;38.57
72772;SHT30;60894;42.544;1.516;2022-09-01T15:07:23;26.20;39.43
72772;SHT30;60894;42.544;1.516;2022-09-01T15:09:49;26.49;39.80
72772;SHT30;60894;42.544;1.516;2022-09-01T15:12:17;26.76;38.76
72772;SHT30;60894;42.544;1.516;2022-09-01T15:14:44;27.06;37.79
72772;SHT30;60894;42.544;1.516;2022-09-01T15:17:11;27.03;38.16
72772;SHT30;60894;42.544;1.516;2022-09-01T15:19:38;27.12;38.50
72772;SHT30;60894;42.544;1.516;2022-09-01T15:22:07;27.42;37.57
72772;SHT30;60894;42.544;1.516;2022-09-01T15:24:35;27.50;37.61
72772;SHT30;60894;42.544;1.516;2022-09-01T15:27:02;27.36;37.12
72772;SHT30;60894;42.544;1.516;2022-09-01T15:29:31;27.63;37.29
72772;SHT30;60894;42.544;1.516;2022-09-01T15:31:59;27.00;37.81
72772;SHT30;60894;42.544;1.516;2022-09-01T15:34:26;26.96;38.17
72772;SHT30;60894;42.544;1.516;2022-09-01T15:36:53;26.72;37.54
72772;SHT30;60894;42.544;1.516;2022-09-01T15:39:22;27.16;37.70
72772;SHT30;60894;42.544;1.516;2022-09-01T15:41:49;27.26;36.67
72772;SHT30;60894;42.544;1.516;2022-09-01T15:44:16;27.12;36.67
72772;SHT30;60894;42.544;1.516;2022-09-01T15:46:43;27.33;36.62
72772;SHT30;60894;42.544;1.516;2022-09-01T15:49:11;27.53;36.97
72772;SHT30;60894;42.544;1.516;2022-09-01T15:51:39;27.09;37.35
72772;SHT30;60894;42.544;1.516;2022-09-01T15:54:08;27.87;37.00
72772;SHT30;60894;42.544;1.516;2022-09-01T15:56:37;27.81;36.45
72772;SHT30;60894;42.544;1.516;2022-09-01T15:59:05;27.98;35.71
72772;SHT30;60894;42.544;1.516;2022-09-01T16:01:34;27.84;35.77
72772;SHT30;60894;42.544;1.516;2022-09-01T16:04:04;28.15;36.08